sensor_id;sensor_type;location;lat;lon;timestamp;temperature;humidity
24902;DHT22;31328;51.402;0.016;2023-04-02T00:02:30;9.10;99.90
24902;DHT22;31328;51.402;0.016;2023-04-02T00:07:43;9.10;99.90
24902;DHT22;31328;51.402;0.016;2023-04-02T00:10:33;9.00;99.90
24902;DHT22;31328;51.402;0.016;2023-04-02T00:13:03;9.00;99.90
24902;DHT22;31328;51.402;0.016;2023-04-02T00:15:31;9.00;99.90
24902;DHT22;31328;51.402;0.016;2023-04-02T00:17:58;9.00;99.90
24902;DHT22;31328;51.402;0.016;2023-04-02T00:20:26;9.00;99.90
24902;DHT22;31328;51.402;0.016;2023-04-02T00:22:54;9.00;99.90
24902;DHT22;31328;51.402;0.016;2023-04-02T00:25:22;9.00;99.90
24902;DHT22;31328;51.402;0.016;2023-04-02T00:27:51;9.00;99.90
24902;DHT22;31328;51.402;0.016;2023-04-02T00:30:17;9.00;99.90
24902;DHT22;31328;51.402;0.016;2023-04-02T00:32:44;9.00;99.90
24902;DHT22;31328;51.402;0.016;2023-04-02T00:35:25;8.90;99.90
24902;DHT22;31328;51.402;0.016;2023-04-02T00:37:52;8.90;99.90
24902;DHT22;31328;51.402;0.016;2023-04-02T00:40:27;8.90;99.90
24902;DHT22;31328;51.402;0.016;2023-04-02T00:42:57;8.90;99.90
24902;DHT22;31328;51.402;0.016;2023-04-02T00:45:34;8.90;99.90
24902;DHT22;31328;51.402;0.016;2023-04-02T00:48:19;8.80;99.90
24902;DHT22;31328;51.402;0.016;2023-04-02T00:50:52;8.80;99.90
24902;DHT22;31328;51.402;0.016;2023-04-02T00:53:29;8.80;99.90
24902;DHT22;31328;51.402;0.016;2023-04-02T00:55:57;8.80;99.90
24902;DHT22;31328;51.402;0.016;2023-04-02T00:58:31;8.80;99.90
24902;DHT22;31328;51.402;0.016;2023-04-02T01:00:58;8.80;99.90
24902;DHT22;31328;51.402;0.016;2023-04-02T01:03:29;8.70;99.90
24902;DHT22;31328;51.402;0.016;2023-04-02T01:06:14;8.70;99.90
24902;DHT22;31328;51.402;0.016;2023-04-02T01:14:15;8.70;99.90
24902;DHT22;31328;51.402;0.016;2023-04-02T01:16:59;8.70;99.90
24902;DHT22;31328;51.402;0.016;2023-04-02T01:24:39;8.70;99.90
24902;DHT22;31328;51.402;0.016;2023-04-02T01:27:15;8.70;99.90
24902;DHT22;31328;51.402;0.016;2023-04-02T01:29:51;8.70;99.90
24902;DHT22;31328;51.402;0.016;2023-04-02T01:32:19;8.70;99.90
24902;DHT22;31328;51.402;0.016;2023-04-02T01:34:48;8.70;99.90
24902;DHT22;31328;51.402;0.016;2023-04-02T01:45:22;8.60;99.90
24902;DHT22;31328;51.402;0.016;2023-04-02T01:47:49;8.70;99.90
24902;DHT22;31328;51.402;0.016;2023-04-02T01:50:37;8.70;99.90
24902;DHT22;31328;51.402;0.016;2023-04-02T01:53:08;8.70;99.90
24902;DHT22;31328;51.402;0.016;2023-04-02T01:55:48;8.70;99.90
24902;DHT22;31328;51.402;0.016;2023-04-02T01:58:19;8.70;99.90
24902;DHT22;31328;51.402;0.016;2023-04-02T02:00:50;8.70;99.90
24902;DHT22;31328;51.402;0.016;2023-04-02T02:03:18;8.70;99.90
24902;DHT22;31328;51.402;0.016;2023-04-02T02:05:44;8.80;99.90
24902;DHT22;31328;51.402;0.016;2023-04-02T02:08:31;8.70;99.90
24902;DHT22;31328;51.402;0.016;2023-04-02T02:10:58;8.70;99.90
24902;DHT22;31328;51.402;0.016;2023-04-02T02:13:24;8.80;99.90
24902;DHT22;31328;51.402;0.016;2023-04-02T02:15:51;8.80;99.90
24902;DHT22;31328;51.402;0.016;2023-04-02T02:18:20;8.80;99.90
24902;DHT22;31328;51.402;0.016;2023-04-02T02:20:50;8.80;99.90
24902;DHT22;31328;51.402;0.016;2023-04-02T02:23:18;8.90;99.90
24902;DHT22;31328;51.402;0.016;2023-04-02T02:25:45;8.90;99.90
24902;DHT22;31328;51.402;0.016;2023-04-02T02:28:28;8.90;99.90
24902;DHT22;31328;51.402;0.016;2023-04-02T02:31:00;8.90;99.90
24902;DHT22;31328;51.402;0.016;2023-04-02T02:33:45;8.90;99.90
24902;DHT22;31328;51.402;0.016;2023-04-02T02:46:55;8.80;99.90
24902;DHT22;31328;51.402;0.016;2023-04-02T02:49:30;8.80;99.90
24902;DHT22;31328;51.402;0.016;2023-04-02T02:54:58;8.80;99.90
24902;DHT22;31328;51.402;0.016;2023-04-02T02:57:31;8.80;99.90
24902;DHT22;31328;51.402;0.016;2023-04-02T02:59:59;8.70;99.90
24902;DHT22;31328;51.402;0.016;2023-04-02T03:02:28;8.70;99.90
24902;DHT22;31328;51.402;0.016;2023-04-02T03:04:55;8.70;99.90
24902;DHT22;31328;51.402;0.016;2023-04-02T03:07:26;8.60;99.90
24902;DHT22;31328;51.402;0.016;2023-04-02T03:10:28;8.60;99.90
24902;DHT22;31328;51.402;0.016;2023-04-02T03:13:26;8.60;99.90
24902;DHT22;31328;51.402;0.016;2023-04-02T03:16:02;8.60;99.90
24902;DHT22;31328;51.402;0.016;2023-04-02T03:18:44;8.60;99.90
24902;DHT22;31328;51.402;0.016;2023-04-02T03:23:52;8.60;99.90
24902;DHT22;31328;51.402;0.016;2023-04-02T03:29:15;8.60;99.90
24902;DHT22;31328;51.402;0.016;2023-04-02T03:34:46;8.60;99.90
24902;DHT22;31328;51.402;0.016;2023-04-02T03:37:23;8.60;99.90
24902;DHT22;31328;51.402;0.016;2023-04-02T03:42:25;8.60;99.90
24902;DHT22;31328;51.402;0.016;2023-04-02T03:45:19;8.60;99.90
24902;DHT22;31328;51.402;0.016;2023-04-02T03:47:54;8.60;99.90
24902;DHT22;31328;51.402;0.016;2023-04-02T03:50:33;8.60;99.90
24902;DHT22;31328;51.402;0.016;2023-04-02T03:53:02;8.60;99.90
24902;DHT22;31328;51.402;0.016;2023-04-02T03:55:34;8.60;99.90
24902;DHT22;31328;51.402;0.016;2023-04-02T04:03:36;8.60;99.90
24902;DHT22;31328;51.402;0.016;2023-04-02T04:06:26;8.50;99.90
24902;DHT22;31328;51.402;0.016;2023-04-02T04:11:30;8.50;99.90
24902;DHT22;31328;51.402;0.016;2023-04-02T04:14:26;8.50;99.90
24902;DHT22;31328;51.402;0.016;2023-04-02T04:19:37;8.50;99.90
24902;DHT22;31328;51.402;0.016;2023-04-02T04:22:18;8.50;99.90
24902;DHT22;31328;51.402;0.016;2023-04-02T04:25:16;8.40;99.90
24902;DHT22;31328;51.402;0.016;2023-04-02T04:27:54;8.40;99.90
24902;DHT22;31328;51.402;0.016;2023-04-02T04:30:27;8.40;99.90
24902;DHT22;31328;51.402;0.016;2023-04-02T04:35:59;8.30;99.90
24902;DHT22;31328;51.402;0.016;2023-04-02T04:38:34;8.30;99.90
24902;DHT22;31328;51.402;0.016;2023-04-02T04:41:22;8.30;99.90
24902;DHT22;31328;51.402;0.016;2023-04-02T04:43:58;8.20;99.90
24902;DHT22;31328;51.402;0.016;2023-04-02T04:46:27;8.20;99.90
24902;DHT22;31328;51.402;0.016;2023-04-02T04:51:45;8.10;99.90
24902;DHT22;31328;51.402;0.016;2023-04-02T04:54:14;8.10;99.90
24902;DHT22;31328;51.402;0.016;2023-04-02T04:56:49;8.10;99.90
24902;DHT22;31328;51.402;0.016;2023-04-02T04:59:30;8.10;99.90
24902;DHT22;31328;51.402;0.016;2023-04-02T05:04:38;8.10;99.90
24902;DHT22;31328;51.402;0.016;2023-04-02T05:07:19;8.10;99.90
24902;DHT22;31328;51.402;0.016;2023-04-02T05:10:14;8.10;99.90
24902;DHT22;31328;51.402;0.016;2023-04-02T05:13:00;8.10;99.90
24902;DHT22;31328;51.402;0.016;2023-04-02T05:18:46;8.10;99.90
24902;DHT22;31328;51.402;0.016;2023-04-02T05:21:26;8.10;99.90
24902;DHT22;31328;51.402;0.016;2023-04-02T05:26:46;8.20;99.90
24902;DHT22;31328;51.402;0.016;2023-04-02T05:29:23;8.10;99.90
24902;DHT22;31328;51.402;0.016;2023-04-02T05:34:34;8.10;99.90
24902;DHT22;31328;51.402;0.016;2023-04-02T05:37:04;8.10;99.90
24902;DHT22;31328;51.402;0.016;2023-04-02T05:39:31;8.10;99.90
24902;DHT22;31328;51.402;0.016;2023-04-02T05:42:02;8.10;99.90
24902;DHT22;31328;51.402;0.016;2023-04-02T05:47:56;8.00;99.90
24902;DHT22;31328;51.402;0.016;2023-04-02T05:50:40;8.00;99.90
24902;DHT22;31328;51.402;0.016;2023-04-02T05:53:26;8.00;99.90
24902;DHT22;31328;51.402;0.016;2023-04-02T05:55:56;8.00;99.90
24902;DHT22;31328;51.402;0.016;2023-04-02T05:58:35;8.00;99.90
24902;DHT22;31328;51.402;0.016;2023-04-02T06:01:29;8.00;99.90
24902;DHT22;31328;51.402;0.016;2023-04-02T06:04:28;8.10;99.90
24902;DHT22;31328;51.402;0.016;2023-04-02T06:07:03;8.00;99.90
24902;DHT22;31328;51.402;0.016;2023-04-02T06:09:45;8.00;99.90
24902;DHT22;31328;51.402;0.016;2023-04-02T06:12:18;8.00;99.90
24902;DHT22;31328;51.402;0.016;2023-04-02T06:14:47;8.00;99.90
24902;DHT22;31328;51.402;0.016;2023-04-02T06:17:16;8.00;99.90
24902;DHT22;31328;51.402;0.016;2023-04-02T06:19:44;8.00;99.90
24902;DHT22;31328;51.402;0.016;2023-04-02T06:25:02;8.00;99.90
24902;DHT22;31328;51.402;0.016;2023-04-02T06:27:36;7.90;99.90
24902;DHT22;31328;51.402;0.016;2023-04-02T06:30:15;7.90;99.90
24902;DHT22;31328;51.402;0.016;2023-04-02T06:32:42;7.90;99.90
24902;DHT22;31328;51.402;0.016;2023-04-02T06:35:12;7.80;99.90
24902;DHT22;31328;51.402;0.016;2023-04-02T06:37:43;7.90;99.90
24902;DHT22;31328;51.402;0.016;2023-04-02T06:40:38;7.80;99.90
24902;DHT22;31328;51.402;0.016;2023-04-02T06:43:26;7.80;99.90
24902;DHT22;31328;51.402;0.016;2023-04-02T06:46:39;7.80;99.90
24902;DHT22;31328;51.402;0.016;2023-04-02T06:49:23;7.90;99.90
24902;DHT22;31328;51.402;0.016;2023-04-02T06:51:57;7.90;99.90
24902;DHT22;31328;51.402;0.016;2023-04-02T06:54:31;7.90;99.90
24902;DHT22;31328;51.402;0.016;2023-04-02T06:57:03;7.90;99.90
24902;DHT22;31328;51.402;0.016;2023-04-02T06:59:35;7.90;99.90
24902;DHT22;31328;51.402;0.016;2023-04-02T07:02:33;7.90;99.90
24902;DHT22;31328;51.402;0.016;2023-04-02T07:05:06;7.90;99.90
24902;DHT22;31328;51.402;0.016;2023-04-02T07:07:36;7.90;99.90
24902;DHT22;31328;51.402;0.016;2023-04-02T07:10:05;7.90;99.90
24902;DHT22;31328;51.402;0.016;2023-04-02T07:12:34;7.90;99.90
24902;DHT22;31328;51.402;0.016;2023-04-02T07:15:00;7.90;99.90
24902;DHT22;31328;51.402;0.016;2023-04-02T07:17:27;7.90;99.90
24902;DHT22;31328;51.402;0.016;2023-04-02T07:19:53;7.90;99.90
24902;DHT22;31328;51.402;0.016;2023-04-02T07:22:21;7.90;99.90
24902;DHT22;31328;51.402;0.016;2023-04-02T07:24:51;7.90;99.90
24902;DHT22;31328;51.402;0.016;2023-04-02T07:27:18;7.90;99.90
24902;DHT22;31328;51.402;0.016;2023-04-02T07:29:44;7.90;99.90
24902;DHT22;31328;51.402;0.016;2023-04-02T07:32:12;7.90;99.90
24902;DHT22;31328;51.402;0.016;2023-04-02T07:34:39;7.90;99.90
24902;DHT22;31328;51.402;0.016;2023-04-02T07:37:06;7.80;99.90
24902;DHT22;31328;51.402;0.016;2023-04-02T07:39:33;7.80;99.90
24902;DHT22;31328;51.402;0.016;2023-04-02T07:42:00;7.80;99.90
24902;DHT22;31328;51.402;0.016;2023-04-02T07:44:27;7.80;99.90
24902;DHT22;31328;51.402;0.016;2023-04-02T07:46:54;7.80;99.90
24902;DHT22;31328;51.402;0.016;2023-04-02T07:49:20;7.80;99.90
24902;DHT22;31328;51.402;0.016;2023-04-02T07:51:47;7.80;99.90
24902;DHT22;31328;51.402;0.016;2023-04-02T07:54:13;7.80;99.90
24902;DHT22;31328;51.402;0.016;2023-04-02T07:56:39;7.80;99.90
24902;DHT22;31328;51.402;0.016;2023-04-02T07:59:06;7.80;99.90
24902;DHT22;31328;51.402;0.016;2023-04-02T08:01:32;7.80;99.90
24902;DHT22;31328;51.402;0.016;2023-04-02T08:04:01;7.90;99.90
24902;DHT22;31328;51.402;0.016;2023-04-02T08:06:29;7.90;99.90
24902;DHT22;31328;51.402;0.016;2023-04-02T08:08:56;7.90;99.90
24902;DHT22;31328;51.402;0.016;2023-04-02T08:11:23;7.90;99.90
24902;DHT22;31328;51.402;0.016;2023-04-02T08:13:49;7.90;99.90
24902;DHT22;31328;51.402;0.016;2023-04-02T08:16:16;7.90;99.90
24902;DHT22;31328;51.402;0.016;2023-04-02T08:18:42;7.90;99.90
24902;DHT22;31328;51.402;0.016;2023-04-02T08:21:09;7.90;99.90
24902;DHT22;31328;51.402;0.016;2023-04-02T08:23:36;7.90;99.90
24902;DHT22;31328;51.402;0.016;2023-04-02T08:26:04;7.90;99.90
24902;DHT22;31328;51.402;0.016;2023-04-02T08:28:31;7.90;99.90
24902;DHT22;31328;51.402;0.016;2023-04-02T08:30:57;8.00;99.90
24902;DHT22;31328;51.402;0.016;2023-04-02T08:33:24;8.00;99.90
24902;DHT22;31328;51.402;0.016;2023-04-02T08:35:51;8.00;99.90
24902;DHT22;31328;51.402;0.016;2023-04-02T08:38:19;8.10;99.90
24902;DHT22;31328;51.402;0.016;2023-04-02T08:40:48;8.10;99.90
24902;DHT22;31328;51.402;0.016;2023-04-02T08:43:30;8.10;99.90
24902;DHT22;31328;51.402;0.016;2023-04-02T08:48:23;8.20;99.90
24902;DHT22;31328;51.402;0.016;2023-04-02T08:50:50;8.20;99.90
24902;DHT22;31328;51.402;0.016;2023-04-02T08:53:25;8.30;99.90
24902;DHT22;31328;51.402;0.016;2023-04-02T08:55:57;8.30;99.90
24902;DHT22;31328;51.402;0.016;2023-04-02T08:58:49;8.40;99.90
24902;DHT22;31328;51.402;0.016;2023-04-02T09:02:06;8.40;99.90
24902;DHT22;31328;51.402;0.016;2023-04-02T09:04:38;8.40;99.90
24902;DHT22;31328;51.402;0.016;2023-04-02T09:07:11;8.50;99.90
24902;DHT22;31328;51.402;0.016;2023-04-02T09:09:38;8.40;99.90
24902;DHT22;31328;51.402;0.016;2023-04-02T09:12:10;8.50;99.90
24902;DHT22;31328;51.402;0.016;2023-04-02T09:17:19;8.60;99.90
24902;DHT22;31328;51.402;0.016;2023-04-02T09:20:13;8.60;99.90
24902;DHT22;31328;51.402;0.016;2023-04-02T09:22:47;8.70;99.90
24902;DHT22;31328;51.402;0.016;2023-04-02T09:25:25;8.70;99.90
24902;DHT22;31328;51.402;0.016;2023-04-02T09:27:54;8.80;99.90
24902;DHT22;31328;51.402;0.016;2023-04-02T09:30:28;8.90;99.90
24902;DHT22;31328;51.402;0.016;2023-04-02T09:33:00;8.90;99.90
24902;DHT22;31328;51.402;0.016;2023-04-02T09:35:31;9.00;99.90
24902;DHT22;31328;51.402;0.016;2023-04-02T09:38:10;9.00;99.90
24902;DHT22;31328;51.402;0.016;2023-04-02T09:41:02;9.10;99.90
24902;DHT22;31328;51.402;0.016;2023-04-02T09:43:30;9.20;99.90
24902;DHT22;31328;51.402;0.016;2023-04-02T09:46:26;9.30;99.90
24902;DHT22;31328;51.402;0.016;2023-04-02T09:48:56;9.30;99.80
24902;DHT22;31328;51.402;0.016;2023-04-02T09:51:27;9.40;99.70
24902;DHT22;31328;51.402;0.016;2023-04-02T09:56:30;9.60;99.60
24902;DHT22;31328;51.402;0.016;2023-04-02T10:01:45;9.70;99.30
24902;DHT22;31328;51.402;0.016;2023-04-02T10:07:02;9.90;99.00
24902;DHT22;31328;51.402;0.016;2023-04-02T10:09:31;9.90;98.90
24902;DHT22;31328;51.402;0.016;2023-04-02T10:12:00;9.90;98.70
24902;DHT22;31328;51.402;0.016;2023-04-02T10:14:30;10.00;98.90
24902;DHT22;31328;51.402;0.016;2023-04-02T10:17:17;10.00;98.70
24902;DHT22;31328;51.402;0.016;2023-04-02T10:19:48;10.10;98.80
24902;DHT22;31328;51.402;0.016;2023-04-02T10:22:18;10.20;98.70
24902;DHT22;31328;51.402;0.016;2023-04-02T10:24:45;10.20;98.70
24902;DHT22;31328;51.402;0.016;2023-04-02T10:30:00;10.30;98.40
24902;DHT22;31328;51.402;0.016;2023-04-02T10:35:07;10.30;98.10
24902;DHT22;31328;51.402;0.016;2023-04-02T10:50:46;10.40;97.70
24902;DHT22;31328;51.402;0.016;2023-04-02T10:53:16;10.40;97.50
24902;DHT22;31328;51.402;0.016;2023-04-02T10:55:47;10.40;97.40
24902;DHT22;31328;51.402;0.016;2023-04-02T10:58:24;10.50;97.00
24902;DHT22;31328;51.402;0.016;2023-04-02T11:01:02;10.60;96.90
24902;DHT22;31328;51.402;0.016;2023-04-02T11:03:36;10.70;97.00
24902;DHT22;31328;51.402;0.016;2023-04-02T11:06:13;10.80;96.90
24902;DHT22;31328;51.402;0.016;2023-04-02T11:08:47;10.90;96.80
24902;DHT22;31328;51.402;0.016;2023-04-02T11:11:19;11.00;96.80
24902;DHT22;31328;51.402;0.016;2023-04-02T11:14:16;11.00;96.50
24902;DHT22;31328;51.402;0.016;2023-04-02T11:16:44;11.20;96.50
24902;DHT22;31328;51.402;0.016;2023-04-02T11:21:49;11.30;96.20
24902;DHT22;31328;51.402;0.016;2023-04-02T11:29:49;11.30;96.00
24902;DHT22;31328;51.402;0.016;2023-04-02T11:37:42;11.40;95.50
24902;DHT22;31328;51.402;0.016;2023-04-02T11:42:42;11.40;95.50
24902;DHT22;31328;51.402;0.016;2023-04-02T11:50:38;11.50;95.40
24902;DHT22;31328;51.402;0.016;2023-04-02T11:55:42;11.50;94.80
24902;DHT22;31328;51.402;0.016;2023-04-02T12:11:43;11.60;94.50
24902;DHT22;31328;51.402;0.016;2023-04-02T12:19:52;11.60;94.00
24902;DHT22;31328;51.402;0.016;2023-04-02T12:22:22;11.70;93.50
24902;DHT22;31328;51.402;0.016;2023-04-02T12:24:53;11.80;93.70
24902;DHT22;31328;51.402;0.016;2023-04-02T12:27:24;11.80;93.30
24902;DHT22;31328;51.402;0.016;2023-04-02T12:29:54;11.90;93.20
24902;DHT22;31328;51.402;0.016;2023-04-02T12:32:26;12.00;93.20
24902;DHT22;31328;51.402;0.016;2023-04-02T12:34:54;12.00;93.30
24902;DHT22;31328;51.402;0.016;2023-04-02T12:37:24;11.90;93.00
24902;DHT22;31328;51.402;0.016;2023-04-02T12:39:53;12.00;93.20
24902;DHT22;31328;51.402;0.016;2023-04-02T12:42:27;12.10;93.10
24902;DHT22;31328;51.402;0.016;2023-04-02T12:44:54;12.20;93.10
24902;DHT22;31328;51.402;0.016;2023-04-02T12:47:21;12.20;92.80
24902;DHT22;31328;51.402;0.016;2023-04-02T12:49:48;12.30;92.60
24902;DHT22;31328;51.402;0.016;2023-04-02T12:52:17;12.30;92.50
24902;DHT22;31328;51.402;0.016;2023-04-02T12:54:52;12.40;92.30
24902;DHT22;31328;51.402;0.016;2023-04-02T12:59:47;12.30;92.10
24902;DHT22;31328;51.402;0.016;2023-04-02T13:02:24;12.30;92.20
24902;DHT22;31328;51.402;0.016;2023-04-02T13:04:59;12.30;92.00
24902;DHT22;31328;51.402;0.016;2023-04-02T13:07:30;12.30;92.00
24902;DHT22;31328;51.402;0.016;2023-04-02T13:10:43;12.30;92.10
24902;DHT22;31328;51.402;0.016;2023-04-02T13:12:55;12.40;92.00
24902;DHT22;31328;51.402;0.016;2023-04-02T13:15:24;12.30;92.10
24902;DHT22;31328;51.402;0.016;2023-04-02T13:20:38;12.60;91.60
24902;DHT22;31328;51.402;0.016;2023-04-02T13:26:01;12.50;91.00
24902;DHT22;31328;51.402;0.016;2023-04-02T13:28:29;12.40;90.90
24902;DHT22;31328;51.402;0.016;2023-04-02T13:30:55;12.40;91.10
24902;DHT22;31328;51.402;0.016;2023-04-02T13:33:21;12.40;91.10
24902;DHT22;31328;51.402;0.016;2023-04-02T13:35:48;12.40;91.00
24902;DHT22;31328;51.402;0.016;2023-04-02T13:38:14;12.50;91.30
24902;DHT22;31328;51.402;0.016;2023-04-02T13:40:41;12.60;91.40
24902;DHT22;31328;51.402;0.016;2023-04-02T13:43:17;12.60;91.10
24902;DHT22;31328;51.402;0.016;2023-04-02T13:45:51;12.60;91.00
24902;DHT22;31328;51.402;0.016;2023-04-02T13:48:19;12.70;90.80
24902;DHT22;31328;51.402;0.016;2023-04-02T13:50:50;12.80;90.80
24902;DHT22;31328;51.402;0.016;2023-04-02T13:53:26;12.90;90.30
24902;DHT22;31328;51.402;0.016;2023-04-02T13:55:55;12.80;90.00
24902;DHT22;31328;51.402;0.016;2023-04-02T13:58:22;12.70;90.00
24902;DHT22;31328;51.402;0.016;2023-04-02T14:00:49;12.70;90.00
24902;DHT22;31328;51.402;0.016;2023-04-02T14:03:19;12.70;89.50
24902;DHT22;31328;51.402;0.016;2023-04-02T14:24:55;12.90;89.00
24902;DHT22;31328;51.402;0.016;2023-04-02T14:27:43;13.00;88.40
24902;DHT22;31328;51.402;0.016;2023-04-02T14:33:42;13.00;87.90
24902;DHT22;31328;51.402;0.016;2023-04-02T14:36:18;12.90;87.80
24902;DHT22;31328;51.402;0.016;2023-04-02T14:38:57;12.80;88.10
24902;DHT22;31328;51.402;0.016;2023-04-02T14:44:05;12.60;89.00
24902;DHT22;31328;51.402;0.016;2023-04-02T14:46:35;12.60;88.90
24902;DHT22;31328;51.402;0.016;2023-04-02T14:51:45;12.60;88.20
24902;DHT22;31328;51.402;0.016;2023-04-02T14:54:34;12.60;88.00
24902;DHT22;31328;51.402;0.016;2023-04-02T14:57:16;12.70;87.40
24902;DHT22;31328;51.402;0.016;2023-04-02T15:02:56;12.70;85.90
24902;DHT22;31328;51.402;0.016;2023-04-02T15:05:46;12.60;86.20
24902;DHT22;31328;51.402;0.016;2023-04-02T15:08:25;12.50;86.00
24902;DHT22;31328;51.402;0.016;2023-04-02T15:13:38;12.60;87.30
24902;DHT22;31328;51.402;0.016;2023-04-02T15:16:18;12.70;87.50
24902;DHT22;31328;51.402;0.016;2023-04-02T15:18:45;12.80;86.80
24902;DHT22;31328;51.402;0.016;2023-04-02T15:26:33;12.80;84.90
24902;DHT22;31328;51.402;0.016;2023-04-02T15:31:44;12.60;84.40
24902;DHT22;31328;51.402;0.016;2023-04-02T15:45:44;12.30;85.40
24902;DHT22;31328;51.402;0.016;2023-04-02T15:51:07;12.30;85.70
24902;DHT22;31328;51.402;0.016;2023-04-02T15:57:15;12.40;85.40
24902;DHT22;31328;51.402;0.016;2023-04-02T15:59:58;12.40;84.90
24902;DHT22;31328;51.402;0.016;2023-04-02T16:10:39;12.40;83.80
24902;DHT22;31328;51.402;0.016;2023-04-02T16:21:00;12.30;83.40
24902;DHT22;31328;51.402;0.016;2023-04-02T16:23:36;12.30;82.80
24902;DHT22;31328;51.402;0.016;2023-04-02T16:29:24;12.30;82.80
24902;DHT22;31328;51.402;0.016;2023-04-02T16:43:03;12.10;82.90
24902;DHT22;31328;51.402;0.016;2023-04-02T16:45:51;12.10;82.90
24902;DHT22;31328;51.402;0.016;2023-04-02T16:54:15;12.00;82.90
24902;DHT22;31328;51.402;0.016;2023-04-02T16:56:53;12.00;82.70
24902;DHT22;31328;51.402;0.016;2023-04-02T17:07:57;11.80;83.20
24902;DHT22;31328;51.402;0.016;2023-04-02T17:10:29;11.80;83.80
24902;DHT22;31328;51.402;0.016;2023-04-02T17:13:11;11.80;83.30
24902;DHT22;31328;51.402;0.016;2023-04-02T17:15:40;11.70;84.00
24902;DHT22;31328;51.402;0.016;2023-04-02T17:18:15;11.70;84.20
24902;DHT22;31328;51.402;0.016;2023-04-02T17:20:42;11.70;84.10
24902;DHT22;31328;51.402;0.016;2023-04-02T17:23:11;11.60;84.30
24902;DHT22;31328;51.402;0.016;2023-04-02T17:26:05;11.70;83.30
24902;DHT22;31328;51.402;0.016;2023-04-02T17:28:32;11.60;83.40
24902;DHT22;31328;51.402;0.016;2023-04-02T17:31:09;11.60;83.00
24902;DHT22;31328;51.402;0.016;2023-04-02T17:33:37;11.50;83.00
24902;DHT22;31328;51.402;0.016;2023-04-02T17:36:42;11.40;83.00
24902;DHT22;31328;51.402;0.016;2023-04-02T17:41:42;11.40;84.10
24902;DHT22;31328;51.402;0.016;2023-04-02T17:49:36;11.20;83.40
24902;DHT22;31328;51.402;0.016;2023-04-02T17:55:31;11.00;84.10
24902;DHT22;31328;51.402;0.016;2023-04-02T18:03:48;10.90;84.70
24902;DHT22;31328;51.402;0.016;2023-04-02T18:11:42;10.70;85.30
24902;DHT22;31328;51.402;0.016;2023-04-02T18:22:42;10.40;86.50
24902;DHT22;31328;51.402;0.016;2023-04-02T18:27:49;10.30;87.90
24902;DHT22;31328;51.402;0.016;2023-04-02T18:30:26;10.20;89.10
24902;DHT22;31328;51.402;0.016;2023-04-02T18:38:59;9.90;91.00
24902;DHT22;31328;51.402;0.016;2023-04-02T18:42:04;9.80;91.40
24902;DHT22;31328;51.402;0.016;2023-04-02T18:47:26;9.50;91.80
24902;DHT22;31328;51.402;0.016;2023-04-02T18:52:42;9.30;92.40
24902;DHT22;31328;51.402;0.016;2023-04-02T18:55:23;9.20;92.60
24902;DHT22;31328;51.402;0.016;2023-04-02T18:58:04;9.10;92.80
24902;DHT22;31328;51.402;0.016;2023-04-02T19:00:38;9.00;92.90
24902;DHT22;31328;51.402;0.016;2023-04-02T19:03:37;8.90;93.20
24902;DHT22;31328;51.402;0.016;2023-04-02T19:06:08;8.90;93.40
24902;DHT22;31328;51.402;0.016;2023-04-02T19:08:45;8.80;93.50
24902;DHT22;31328;51.402;0.016;2023-04-02T19:11:16;8.70;93.60
24902;DHT22;31328;51.402;0.016;2023-04-02T19:13:43;8.60;93.70
24902;DHT22;31328;51.402;0.016;2023-04-02T19:16:26;8.60;93.90
24902;DHT22;31328;51.402;0.016;2023-04-02T19:19:02;8.50;93.90
24902;DHT22;31328;51.402;0.016;2023-04-02T19:27:06;8.40;94.20
24902;DHT22;31328;51.402;0.016;2023-04-02T19:30:02;8.30;94.30
24902;DHT22;31328;51.402;0.016;2023-04-02T19:32:36;8.30;94.50
24902;DHT22;31328;51.402;0.016;2023-04-02T19:43:13;8.00;94.90
24902;DHT22;31328;51.402;0.016;2023-04-02T19:45:40;8.00;95.00
24902;DHT22;31328;51.402;0.016;2023-04-02T19:50:37;7.90;95.30
24902;DHT22;31328;51.402;0.016;2023-04-02T19:53:03;7.90;95.40
24902;DHT22;31328;51.402;0.016;2023-04-02T19:55:29;7.80;95.50
24902;DHT22;31328;51.402;0.016;2023-04-02T19:57:56;7.80;95.60
24902;DHT22;31328;51.402;0.016;2023-04-02T20:00:22;7.70;95.80
24902;DHT22;31328;51.402;0.016;2023-04-02T20:02:48;7.60;95.90
24902;DHT22;31328;51.402;0.016;2023-04-02T20:05:15;7.60;96.00
24902;DHT22;31328;51.402;0.016;2023-04-02T20:07:41;7.60;96.20
24902;DHT22;31328;51.402;0.016;2023-04-02T20:10:09;7.50;96.30
24902;DHT22;31328;51.402;0.016;2023-04-02T20:12:35;7.40;96.40
24902;DHT22;31328;51.402;0.016;2023-04-02T20:15:03;7.40;96.50
24902;DHT22;31328;51.402;0.016;2023-04-02T20:17:30;7.40;96.50
24902;DHT22;31328;51.402;0.016;2023-04-02T20:19:56;7.30;96.60
24902;DHT22;31328;51.402;0.016;2023-04-02T20:22:22;7.20;96.70
24902;DHT22;31328;51.402;0.016;2023-04-02T20:24:49;7.20;96.90
24902;DHT22;31328;51.402;0.016;2023-04-02T20:27:15;7.20;97.00
24902;DHT22;31328;51.402;0.016;2023-04-02T20:29:42;7.10;97.00
24902;DHT22;31328;51.402;0.016;2023-04-02T20:32:08;7.10;97.10
24902;DHT22;31328;51.402;0.016;2023-04-02T20:34:35;7.00;97.20
24902;DHT22;31328;51.402;0.016;2023-04-02T20:37:01;7.00;97.30
24902;DHT22;31328;51.402;0.016;2023-04-02T20:39:28;6.90;97.40
24902;DHT22;31328;51.402;0.016;2023-04-02T20:41:54;7.00;97.50
24902;DHT22;31328;51.402;0.016;2023-04-02T20:44:26;6.90;97.60
24902;DHT22;31328;51.402;0.016;2023-04-02T20:46:53;6.90;97.60
24902;DHT22;31328;51.402;0.016;2023-04-02T20:49:20;6.80;97.70
24902;DHT22;31328;51.402;0.016;2023-04-02T20:51:46;6.80;97.80
24902;DHT22;31328;51.402;0.016;2023-04-02T20:54:12;6.80;97.80
24902;DHT22;31328;51.402;0.016;2023-04-02T20:56:39;6.80;97.80
24902;DHT22;31328;51.402;0.016;2023-04-02T20:59:05;6.80;97.80
24902;DHT22;31328;51.402;0.016;2023-04-02T21:01:31;6.80;97.90
24902;DHT22;31328;51.402;0.016;2023-04-02T21:04:00;6.70;97.90
24902;DHT22;31328;51.402;0.016;2023-04-02T21:06:29;6.70;97.90
24902;DHT22;31328;51.402;0.016;2023-04-02T21:08:56;6.70;98.00
24902;DHT22;31328;51.402;0.016;2023-04-02T21:11:23;6.60;97.90
24902;DHT22;31328;51.402;0.016;2023-04-02T21:13:49;6.60;97.80
24902;DHT22;31328;51.402;0.016;2023-04-02T21:16:19;6.70;97.80
24902;DHT22;31328;51.402;0.016;2023-04-02T21:18:47;6.70;97.60
24902;DHT22;31328;51.402;0.016;2023-04-02T21:21:15;6.70;97.60
24902;DHT22;31328;51.402;0.016;2023-04-02T21:23:42;6.60;97.50
24902;DHT22;31328;51.402;0.016;2023-04-02T21:26:16;6.60;97.40
24902;DHT22;31328;51.402;0.016;2023-04-02T21:28:43;6.60;97.30
24902;DHT22;31328;51.402;0.016;2023-04-02T21:31:14;6.60;97.30
24902;DHT22;31328;51.402;0.016;2023-04-02T21:33:43;6.60;97.20
24902;DHT22;31328;51.402;0.016;2023-04-02T21:36:15;6.60;97.20
24902;DHT22;31328;51.402;0.016;2023-04-02T21:38:43;6.60;97.20
24902;DHT22;31328;51.402;0.016;2023-04-02T21:41:18;6.60;97.20
24902;DHT22;31328;51.402;0.016;2023-04-02T21:43:46;6.50;97.20
24902;DHT22;31328;51.402;0.016;2023-04-02T21:46:24;6.50;97.20
24902;DHT22;31328;51.402;0.016;2023-04-02T21:48:52;6.50;97.10